createdAt,value
2019-05-30T00:01:29.902Z,12.33
2019-05-30T00:04:00.320Z,12.14
2019-05-30T00:06:30.235Z,11.92
2019-05-30T00:09:00.527Z,12.08
2019-05-30T00:11:30.554Z,12.13
2019-05-30T00:14:00.736Z,12.08
2019-05-30T00:16:30.585Z,12.07
2019-05-30T00:19:00.917Z,12.14
2019-05-30T00:21:30.816Z,12.21
2019-05-30T00:24:02.035Z,12.28
2019-05-30T00:26:32.030Z,12.25
2019-05-30T00:29:02.564Z,12.28
2019-05-30T00:31:32.511Z,12.28
2019-05-30T00:34:04.104Z,12.35
2019-05-30T00:36:34.163Z,12.40
2019-05-30T00:39:06.597Z,12.39
2019-05-30T00:41:36.575Z,12.27
2019-05-30T00:44:06.747Z,12.27
2019-05-30T00:46:36.715Z,12.37
2019-05-30T00:49:06.818Z,12.35
2019-05-30T00:51:36.644Z,12.31
2019-05-30T00:54:07.086Z,12.26
2019-05-30T00:56:37.012Z,12.21
2019-05-30T00:59:07.086Z,12.26
2019-05-30T01:01:36.930Z,12.25
2019-05-30T01:04:07.184Z,12.24
2019-05-30T01:06:37.188Z,12.21
2019-05-30T01:09:07.608Z,12.08
2019-05-30T01:11:37.620Z,12.07
2019-05-30T01:14:07.693Z,11.95
2019-05-30T01:16:37.664Z,11.85
2019-05-30T01:19:07.511Z,11.77
2019-05-30T01:21:37.422Z,11.70
2019-05-30T01:24:07.769Z,11.70
2019-05-30T01:26:37.774Z,11.70
2019-05-30T01:29:07.883Z,11.52
2019-05-30T01:31:37.962Z,11.46
2019-05-30T01:34:08.050Z,11.46
2019-05-30T01:36:38.935Z,11.49
2019-05-30T01:39:08.992Z,11.49
2019-05-30T01:41:38.904Z,11.42
2019-05-30T01:44:08.918Z,11.43
2019-05-30T01:46:38.829Z,11.40
2019-05-30T01:49:08.812Z,11.32
2019-05-30T01:51:38.710Z,11.25
2019-05-30T01:54:08.908Z,11.30
2019-05-30T01:56:38.884Z,11.27
2019-05-30T01:59:08.946Z,11.34
2019-05-30T02:01:39.168Z,11.31
2019-05-30T02:04:09.514Z,11.22
2019-05-30T02:06:39.572Z,11.18
2019-05-30T02:09:10.834Z,11.14
2019-05-30T02:11:41.405Z,11.15
2019-05-30T02:14:11.284Z,11.06
2019-05-30T02:16:41.232Z,11.11
2019-05-30T02:19:11.147Z,11.18
2019-05-30T02:21:41.177Z,11.23
2019-05-30T02:24:12.169Z,11.32
2019-05-30T02:26:43.420Z,11.21
2019-05-30T02:29:13.338Z,11.14
2019-05-30T02:31:43.194Z,11.27
2019-05-30T02:34:13.100Z,11.33
2019-05-30T02:36:43.107Z,11.24
2019-05-30T02:39:13.101Z,11.23
2019-05-30T02:41:43.046Z,11.27
2019-05-30T02:44:13.130Z,11.30
2019-05-30T02:46:42.972Z,11.12
2019-05-30T02:49:13.755Z,11.16
2019-05-30T02:51:43.956Z,11.14
2019-05-30T02:54:13.856Z,11.12
2019-05-30T02:56:43.743Z,11.09
2019-05-30T02:59:14.075Z,11.00
2019-05-30T03:02:00.034Z,10.90
2019-05-30T03:04:18.563Z,10.83
2019-05-30T03:06:48.965Z,10.81
2019-05-30T03:09:18.856Z,10.88
2019-05-30T03:11:48.878Z,10.99
2019-05-30T03:14:20.005Z,10.94
2019-05-30T03:16:50.211Z,10.89
2019-05-30T03:19:20.203Z,10.78
2019-05-30T03:21:50.233Z,10.84
2019-05-30T03:24:20.335Z,10.90
2019-05-30T03:26:50.262Z,10.94
2019-05-30T03:29:20.276Z,11.02
2019-05-30T03:31:51.926Z,11.08
2019-05-30T03:34:28.474Z,11.11
2019-05-30T03:36:54.590Z,11.12
2019-05-30T03:39:24.572Z,11.12
2019-05-30T03:41:54.586Z,11.16
2019-05-30T03:44:24.585Z,11.27
2019-05-30T03:46:58.173Z,11.30
2019-05-30T03:49:31.048Z,11.10
2019-05-30T03:52:05.046Z,10.99
2019-05-30T03:54:36.596Z,10.94
2019-05-30T03:57:15.661Z,10.94
2019-05-30T03:59:56.089Z,11.08
2019-05-30T04:02:58.284Z,11.19
2019-05-30T04:05:30.846Z,11.22
2019-05-30T04:08:04.076Z,11.23
2019-05-30T04:10:37.949Z,11.27
2019-05-30T04:13:19.350Z,11.35
2019-05-30T04:15:49.416Z,11.46
2019-05-30T04:18:19.655Z,11.39
2019-05-30T04:20:49.792Z,11.30
2019-05-30T04:23:19.760Z,11.56
2019-05-30T04:25:49.745Z,11.69
2019-05-30T04:28:19.668Z,11.80
2019-05-30T04:30:49.565Z,11.90
2019-05-30T04:33:32.530Z,11.74
2019-05-30T04:35:51.012Z,11.69
2019-05-30T04:38:20.954Z,11.91
2019-05-30T04:40:50.849Z,12.08
2019-05-30T04:43:21.807Z,12.23
2019-05-30T04:45:51.718Z,12.06
2019-05-30T04:48:21.622Z,12.04
2019-05-30T04:50:51.564Z,12.05
2019-05-30T04:53:21.474Z,12.18
2019-05-30T04:55:51.304Z,12.24
2019-05-30T04:58:24.200Z,12.18
2019-05-30T05:00:52.759Z,12.25
2019-05-30T05:03:41.782Z,12.29
2019-05-30T05:05:54.233Z,12.21
2019-05-30T05:08:24.033Z,12.22
2019-05-30T05:10:53.884Z,12.23
2019-05-30T05:13:23.792Z,12.28
2019-05-30T05:15:53.675Z,12.35
2019-05-30T05:18:23.589Z,12.68
2019-05-30T05:20:53.562Z,12.80
2019-05-30T05:23:23.624Z,12.52
2019-05-30T05:26:01.071Z,12.66
2019-05-30T05:28:25.361Z,12.59
2019-05-30T05:30:55.230Z,12.69
2019-05-30T05:33:25.042Z,13.01
2019-05-30T05:35:55.042Z,13.00
2019-05-30T05:38:24.944Z,12.57
2019-05-30T05:40:54.897Z,12.59
2019-05-30T05:43:24.703Z,12.50
2019-05-30T05:45:54.652Z,12.78
2019-05-30T05:48:24.799Z,12.38
2019-05-30T05:50:54.675Z,12.55
2019-05-30T05:53:25.075Z,12.83
2019-05-30T05:55:55.207Z,12.96
2019-05-30T05:58:26.367Z,12.77
2019-05-30T06:00:56.525Z,12.74
2019-05-30T06:03:26.428Z,12.77
2019-05-30T06:05:56.377Z,12.82
2019-05-30T06:08:27.604Z,12.61
2019-05-30T06:10:57.647Z,12.64
2019-05-30T06:13:27.599Z,12.62
2019-05-30T06:15:57.418Z,12.70
2019-05-30T06:18:28.423Z,12.71
2019-05-30T06:20:59.472Z,12.81
2019-05-30T06:23:29.366Z,12.79
2019-05-30T06:25:59.257Z,13.08
2019-05-30T06:28:29.184Z,12.97
2019-05-30T06:30:59.380Z,13.31
2019-05-30T06:33:30.399Z,13.12
2019-05-30T06:36:00.404Z,13.33
2019-05-30T06:38:30.259Z,13.91
2019-05-30T06:41:00.234Z,13.85
2019-05-30T06:43:30.351Z,14.34
2019-05-30T06:46:00.342Z,14.58
2019-05-30T06:48:30.905Z,14.24
2019-05-30T06:51:01.097Z,13.97
2019-05-30T06:53:31.494Z,14.71
2019-05-30T06:56:01.578Z,14.88
2019-05-30T06:58:47.455Z,15.31
2019-05-30T07:01:04.382Z,15.37
2019-05-30T07:03:34.329Z,15.91
2019-05-30T07:06:04.830Z,16.14
2019-05-30T07:08:35.090Z,15.98
2019-05-30T07:11:05.157Z,16.10
2019-05-30T07:13:35.095Z,16.60
2019-05-30T07:16:05.191Z,16.68
2019-05-30T07:18:36.722Z,16.00
2019-05-30T07:21:06.759Z,16.67
2019-05-30T07:23:39.673Z,16.91
2019-05-30T07:26:09.491Z,17.29
2019-05-30T07:28:39.464Z,17.01
2019-05-30T07:31:09.309Z,16.86
2019-05-30T07:33:39.126Z,17.12
2019-05-30T07:36:09.078Z,16.95
2019-05-30T07:38:38.978Z,16.44
2019-05-30T07:41:08.970Z,16.38
2019-05-30T07:43:38.860Z,16.51
2019-05-30T07:46:08.776Z,16.54
2019-05-30T07:48:40.363Z,16.60
2019-05-30T07:51:10.203Z,16.93
2019-05-30T07:53:40.022Z,16.25
2019-05-30T07:56:09.994Z,16.88
2019-05-30T07:58:39.955Z,17.38
2019-05-30T08:01:09.890Z,17.61
2019-05-30T08:03:39.745Z,17.94
2019-05-30T08:06:09.633Z,17.46
2019-05-30T08:08:39.537Z,17.45
2019-05-30T08:11:10.353Z,17.02
2019-05-30T08:13:40.395Z,16.83
2019-05-30T08:16:10.224Z,16.40
2019-05-30T08:18:40.182Z,16.44
2019-05-30T08:21:10.138Z,15.68
2019-05-30T08:23:40.121Z,16.02
2019-05-30T08:26:10.143Z,15.90
2019-05-30T08:28:42.555Z,15.86
2019-05-30T08:31:11.729Z,16.07
2019-05-30T08:33:41.656Z,16.27
2019-05-30T08:36:11.636Z,16.45
2019-05-30T08:38:41.600Z,16.43
2019-05-30T08:41:11.512Z,16.65
2019-05-30T08:43:41.407Z,17.18
2019-05-30T08:46:11.320Z,17.49
2019-05-30T08:48:41.217Z,16.72
2019-05-30T08:51:11.133Z,15.40
2019-05-30T08:53:40.966Z,15.47
2019-05-30T08:56:10.881Z,15.45
2019-05-30T08:58:40.977Z,15.64
2019-05-30T09:01:10.949Z,15.34
2019-05-30T09:03:42.121Z,15.32
2019-05-30T09:06:12.009Z,15.39
2019-05-30T09:08:42.222Z,15.60
2019-05-30T09:11:12.064Z,15.04
2019-05-30T09:13:42.673Z,15.34
2019-05-30T09:16:12.726Z,15.29
2019-05-30T09:18:43.173Z,15.39
2019-05-30T09:21:14.407Z,15.56
2019-05-30T09:23:45.956Z,16.07
2019-05-30T09:26:15.904Z,15.99
2019-05-30T09:28:46.251Z,16.63
2019-05-30T09:31:16.389Z,16.69
2019-05-30T09:33:46.647Z,16.82
2019-05-30T09:36:16.637Z,17.01
2019-05-30T09:38:47.483Z,16.73
2019-05-30T09:41:17.391Z,16.90
2019-05-30T09:43:48.170Z,17.33
2019-05-30T09:46:18.255Z,16.86
2019-05-30T09:48:48.699Z,17.12
2019-05-30T09:51:18.781Z,17.34
2019-05-30T09:53:48.848Z,17.43
2019-05-30T09:56:18.765Z,16.88
2019-05-30T09:58:49.706Z,17.11
2019-05-30T10:01:19.897Z,17.40
2019-05-30T10:03:50.230Z,17.88
2019-05-30T10:06:28.906Z,17.72
2019-05-30T10:08:53.013Z,18.19
2019-05-30T10:11:23.078Z,18.37
2019-05-30T10:13:53.020Z,18.47
2019-05-30T10:16:22.970Z,17.84
2019-05-30T10:18:52.971Z,18.15
2019-05-30T10:21:23.026Z,18.17
2019-05-30T10:23:53.725Z,18.20
2019-05-30T10:26:23.782Z,18.29
2019-05-30T10:28:53.770Z,18.05
2019-05-30T10:31:23.654Z,18.00
2019-05-30T10:33:53.555Z,17.80
2019-05-30T10:36:23.519Z,17.91
2019-05-30T10:38:53.952Z,18.00
2019-05-30T10:41:23.980Z,18.25
2019-05-30T10:43:53.886Z,17.91
2019-05-30T10:46:23.782Z,17.55
2019-05-30T10:48:54.679Z,18.49
2019-05-30T10:51:25.748Z,19.55
2019-05-30T10:53:55.798Z,19.60
2019-05-30T10:56:25.638Z,19.49
2019-05-30T10:58:55.576Z,19.22
2019-05-30T11:01:25.547Z,19.69
2019-05-30T11:03:55.499Z,19.88
2019-05-30T11:06:58.621Z,20.22
2019-05-30T11:09:18.390Z,20.95
2019-05-30T11:11:48.655Z,21.78
2019-05-30T11:14:19.726Z,21.53
2019-05-30T11:16:50.528Z,20.84
2019-05-30T11:19:21.276Z,20.61
2019-05-30T11:21:52.694Z,20.02
2019-05-30T11:24:22.979Z,19.18
2019-05-30T11:26:54.249Z,19.37
2019-05-30T11:29:24.413Z,20.03
2019-05-30T11:31:54.939Z,19.82
2019-05-30T11:34:24.939Z,19.56
2019-05-30T11:36:55.111Z,18.80
2019-05-30T11:39:25.000Z,17.99
2019-05-30T11:41:55.327Z,17.74
2019-05-30T11:44:25.322Z,17.65
2019-05-30T11:46:55.626Z,17.62
2019-05-30T11:49:25.675Z,17.22
2019-05-30T11:51:55.817Z,17.41
2019-05-30T11:54:25.767Z,17.77
2019-05-30T11:56:56.151Z,17.60
2019-05-30T11:59:26.145Z,18.46
2019-05-30T12:01:56.501Z,19.50
2019-05-30T12:04:26.410Z,20.13
2019-05-30T12:06:56.769Z,20.59
2019-05-30T12:09:26.849Z,20.01
2019-05-30T12:11:57.424Z,19.40
2019-05-30T12:14:27.420Z,18.79
2019-05-30T12:16:57.404Z,19.09
2019-05-30T12:19:27.352Z,18.66
2019-05-30T12:21:57.687Z,18.22
2019-05-30T12:24:27.591Z,17.78
2019-05-30T12:26:58.096Z,17.70
2019-05-30T12:29:27.971Z,17.99
2019-05-30T12:32:00.187Z,18.86
2019-05-30T12:34:29.491Z,19.25
2019-05-30T12:37:00.544Z,19.39
2019-05-30T12:39:31.955Z,18.89
2019-05-30T12:42:03.242Z,18.67
2019-05-30T12:44:33.276Z,18.89
2019-05-30T12:47:03.541Z,18.71
2019-05-30T12:49:33.584Z,18.92
2019-05-30T12:52:03.494Z,18.99
2019-05-30T12:54:33.466Z,18.48
2019-05-30T12:57:03.286Z,18.86
2019-05-30T12:59:33.099Z,18.32
2019-05-30T13:02:03.131Z,18.39
2019-05-30T13:04:33.080Z,18.90
2019-05-30T13:07:03.358Z,19.57
2019-05-30T13:09:33.363Z,19.78
2019-05-30T13:12:03.533Z,20.04
2019-05-30T13:14:33.535Z,19.95
2019-05-30T13:17:03.911Z,19.79
2019-05-30T13:19:34.246Z,19.73
2019-05-30T13:22:04.231Z,19.78
2019-05-30T13:24:34.107Z,19.58
2019-05-30T13:27:04.087Z,19.80
2019-05-30T13:29:33.979Z,20.04
2019-05-30T13:32:04.633Z,20.23
2019-05-30T13:34:34.618Z,20.25
2019-05-30T13:37:05.067Z,20.18
2019-05-30T13:39:35.105Z,19.93
2019-05-30T13:42:05.843Z,20.09
2019-05-30T13:44:37.044Z,19.58
2019-05-30T13:47:06.870Z,19.38
2019-05-30T13:49:36.709Z,19.77
2019-05-30T13:52:07.284Z,20.52
2019-05-30T13:54:37.406Z,21.04
2019-05-30T13:57:07.859Z,21.40
2019-05-30T13:59:38.851Z,21.92
2019-05-30T14:02:10.171Z,22.51
2019-05-30T14:04:40.182Z,22.21
2019-05-30T14:07:10.514Z,20.13
2019-05-30T14:09:40.545Z,21.35
2019-05-30T14:12:10.706Z,20.75
2019-05-30T14:14:40.557Z,20.31
2019-05-30T14:17:12.310Z,20.12
2019-05-30T14:19:41.968Z,21.15
2019-05-30T14:22:12.064Z,21.21
2019-05-30T14:24:41.893Z,21.90
2019-05-30T14:27:11.896Z,21.27
2019-05-30T14:29:41.729Z,20.65
2019-05-30T14:32:12.019Z,20.67
2019-05-30T14:34:42.069Z,21.59
2019-05-30T14:37:12.599Z,21.87
2019-05-30T14:39:42.730Z,22.21
2019-05-30T14:42:13.306Z,22.48
2019-05-30T14:44:43.257Z,22.05
2019-05-30T14:47:13.065Z,21.28
2019-05-30T14:49:43.044Z,21.75
2019-05-30T14:52:13.365Z,21.74
2019-05-30T14:54:43.775Z,22.74
2019-05-30T14:57:13.680Z,21.86
2019-05-30T14:59:43.533Z,21.82
2019-05-30T15:02:13.422Z,21.96
2019-05-30T15:04:43.323Z,21.56
2019-05-30T15:07:13.644Z,20.81
2019-05-30T15:09:43.676Z,21.69
2019-05-30T15:12:13.503Z,22.04
2019-05-30T15:14:43.308Z,22.26
2019-05-30T15:17:14.294Z,22.36
2019-05-30T15:19:44.251Z,22.32
2019-05-30T15:22:17.111Z,22.29
2019-05-30T15:24:45.858Z,22.09
2019-05-30T15:27:16.294Z,22.21
2019-05-30T15:29:47.275Z,22.27
2019-05-30T15:32:17.114Z,21.48
2019-05-30T15:34:47.012Z,21.17
2019-05-30T15:37:17.051Z,20.41
2019-05-30T15:39:47.063Z,20.05
2019-05-30T15:42:17.715Z,19.35
2019-05-30T15:44:47.746Z,19.15
2019-05-30T15:47:18.470Z,19.01
2019-05-30T15:49:52.117Z,19.05
2019-05-30T15:52:21.087Z,19.33
2019-05-30T15:54:51.058Z,20.06
2019-05-30T15:57:20.946Z,20.58
2019-05-30T15:59:50.874Z,20.82
2019-05-30T16:02:20.865Z,20.96
2019-05-30T16:04:50.749Z,21.20
2019-05-30T16:07:20.900Z,20.37
2019-05-30T16:09:50.792Z,20.79
2019-05-30T16:12:21.372Z,20.97
2019-05-30T16:14:51.400Z,20.34
2019-05-30T16:17:21.783Z,20.54
2019-05-30T16:19:51.816Z,20.64
2019-05-30T16:22:22.676Z,20.38
2019-05-30T16:24:52.651Z,20.22
2019-05-30T16:27:22.561Z,19.67
2019-05-30T16:29:52.506Z,19.06
2019-05-30T16:32:22.390Z,19.53
2019-05-30T16:34:52.300Z,20.34
2019-05-30T16:37:22.337Z,20.46
2019-05-30T16:40:05.295Z,20.52
2019-05-30T16:42:23.945Z,20.88
2019-05-30T16:44:53.786Z,20.95
2019-05-30T16:47:23.632Z,21.52
2019-05-30T16:49:53.616Z,21.74
2019-05-30T16:52:23.422Z,21.72
2019-05-30T16:54:53.349Z,21.67
2019-05-30T16:57:23.326Z,21.76
2019-05-30T16:59:53.228Z,22.30
2019-05-30T17:02:23.275Z,22.32
2019-05-30T17:04:53.173Z,22.35
2019-05-30T17:07:25.370Z,22.51
2019-05-30T17:09:55.465Z,22.67
2019-05-30T17:12:25.805Z,22.54
2019-05-30T17:14:55.877Z,22.54
2019-05-30T17:17:27.681Z,22.64
2019-05-30T17:19:59.656Z,22.33
2019-05-30T17:22:30.702Z,22.53
2019-05-30T17:25:00.710Z,22.67
2019-05-30T17:27:33.781Z,22.89
2019-05-30T17:30:03.793Z,22.97
2019-05-30T17:32:33.607Z,23.64
2019-05-30T17:35:03.540Z,24.28
2019-05-30T17:37:33.528Z,25.47
2019-05-30T17:40:03.523Z,25.99
2019-05-30T17:42:33.570Z,26.74
2019-05-30T17:45:03.871Z,26.25
2019-05-30T17:47:33.806Z,26.83
2019-05-30T17:50:03.960Z,27.63
2019-05-30T17:52:33.895Z,27.90
2019-05-30T17:55:04.197Z,27.67
2019-05-30T17:57:34.293Z,26.61
2019-05-30T18:00:04.819Z,25.38
2019-05-30T18:02:37.834Z,25.17
2019-05-30T18:05:08.123Z,25.88
2019-05-30T18:07:38.125Z,25.93
2019-05-30T18:10:09.348Z,24.63
2019-05-30T18:12:39.255Z,22.73
2019-05-30T18:15:09.659Z,22.25
2019-05-30T18:17:39.669Z,21.44
2019-05-30T18:20:10.751Z,20.83
2019-05-30T18:22:40.986Z,20.37
2019-05-30T18:25:12.112Z,19.95
2019-05-30T18:27:42.128Z,19.58
2019-05-30T18:30:13.119Z,19.27
2019-05-30T18:32:43.248Z,19.02
2019-05-30T18:35:13.242Z,18.80
2019-05-30T18:37:43.514Z,18.60
2019-05-30T18:40:14.942Z,18.34
2019-05-30T18:42:45.024Z,18.34
2019-05-30T18:45:18.182Z,18.30
2019-05-30T18:47:48.034Z,18.09
2019-05-30T18:50:17.975Z,17.99
2019-05-30T18:52:47.809Z,17.89
2019-05-30T18:55:17.821Z,17.76
2019-05-30T18:57:47.793Z,17.63
2019-05-30T19:00:18.677Z,17.41
2019-05-30T19:02:48.679Z,17.28
2019-05-30T19:05:18.652Z,17.11
2019-05-30T19:07:48.639Z,16.99
2019-05-30T19:10:18.628Z,16.88
2019-05-30T19:12:48.619Z,16.78
2019-05-30T19:15:18.895Z,16.61
2019-05-30T19:17:48.800Z,16.49
2019-05-30T19:20:19.700Z,16.43
2019-05-30T19:22:49.722Z,16.36
2019-05-30T19:25:19.797Z,16.26
2019-05-30T19:27:49.751Z,16.12
2019-05-30T19:30:19.956Z,16.07
2019-05-30T19:32:49.964Z,16.05
2019-05-30T19:35:20.093Z,16.00
2019-05-30T19:37:50.111Z,15.87
2019-05-30T19:40:19.996Z,15.77
2019-05-30T19:42:49.952Z,15.68
2019-05-30T19:45:21.629Z,15.62
2019-05-30T19:47:51.658Z,15.55
2019-05-30T19:50:21.643Z,15.40
2019-05-30T19:52:51.596Z,15.35
2019-05-30T19:55:21.807Z,15.28
2019-05-30T19:57:51.805Z,15.25
2019-05-30T20:00:22.177Z,15.15
2019-05-30T20:02:52.186Z,15.05
2019-05-30T20:05:22.164Z,15.01
2019-05-30T20:07:52.055Z,14.99
2019-05-30T20:10:22.045Z,14.97
2019-05-30T20:12:52.103Z,14.88
2019-05-30T20:15:22.088Z,14.87
2019-05-30T20:17:52.009Z,14.84
2019-05-30T20:20:21.908Z,14.79
2019-05-30T20:22:52.083Z,14.81
2019-05-30T20:25:22.075Z,14.87
2019-05-30T20:27:52.093Z,14.93
2019-05-30T20:30:22.335Z,14.96
2019-05-30T20:32:52.266Z,15.04
2019-05-30T20:35:23.334Z,15.07
2019-05-30T20:37:53.303Z,15.02
2019-05-30T20:40:23.277Z,14.97
2019-05-30T20:42:53.562Z,14.95
2019-05-30T20:45:23.619Z,14.93
2019-05-30T20:47:53.451Z,14.84
2019-05-30T20:50:24.016Z,14.80
2019-05-30T20:52:53.981Z,14.73
2019-05-30T20:55:23.941Z,14.71
2019-05-30T20:57:53.944Z,14.42
2019-05-30T21:00:27.520Z,14.60
2019-05-30T21:02:57.496Z,14.53
2019-05-30T21:05:27.427Z,14.48
2019-05-30T21:07:58.216Z,14.52
2019-05-30T21:10:28.592Z,14.48
2019-05-30T21:12:59.795Z,14.44
2019-05-30T21:15:32.483Z,14.38
2019-05-30T21:18:03.757Z,14.39
2019-05-30T21:20:33.732Z,14.39
2019-05-30T21:23:03.970Z,14.36
2019-05-30T21:25:35.889Z,14.28
2019-05-30T21:28:05.663Z,14.15
2019-05-30T21:30:36.699Z,14.11
2019-05-30T21:33:07.750Z,14.52
2019-05-30T21:35:37.711Z,14.78
2019-05-30T21:38:07.625Z,14.87
2019-05-30T21:40:38.195Z,14.68
2019-05-30T21:43:08.680Z,14.39
2019-05-30T21:45:38.591Z,14.21
2019-05-30T21:48:08.498Z,14.13
2019-05-30T21:50:39.308Z,14.10
2019-05-30T21:53:09.926Z,13.91
2019-05-30T21:55:39.898Z,13.82
2019-05-30T21:58:10.693Z,13.80
2019-05-30T22:01:30.834Z,13.80
2019-05-30T22:04:00.840Z,13.72
2019-05-30T22:06:30.945Z,13.63
2019-05-30T22:09:03.424Z,13.59
2019-05-30T22:11:33.940Z,13.68
2019-05-30T22:14:04.082Z,13.63
2019-05-30T22:16:34.045Z,13.56
2019-05-30T22:19:04.050Z,13.50
2019-05-30T22:21:33.963Z,13.48
2019-05-30T22:24:04.268Z,13.42
2019-05-30T22:26:34.160Z,13.36
2019-05-30T22:29:04.430Z,13.30
2019-05-30T22:31:34.323Z,13.24
2019-05-30T22:34:04.251Z,13.29
2019-05-30T22:36:34.139Z,13.20
2019-05-30T22:39:08.701Z,13.23
2019-05-30T22:41:37.223Z,13.28
2019-05-30T22:44:07.554Z,13.25
2019-05-30T22:46:37.382Z,13.19
2019-05-30T22:49:07.402Z,13.14
2019-05-30T22:51:37.211Z,13.07
2019-05-30T22:54:07.113Z,13.05
2019-05-30T22:56:37.003Z,13.05
2019-05-30T22:59:07.076Z,13.02
2019-05-30T23:01:36.938Z,13.05
2019-05-30T23:04:06.902Z,12.99
2019-05-30T23:06:36.783Z,13.02
2019-05-30T23:09:08.203Z,13.02
2019-05-30T23:11:38.109Z,13.00
2019-05-30T23:14:08.099Z,13.04
2019-05-30T23:16:37.907Z,13.17
2019-05-30T23:19:07.903Z,13.19
2019-05-30T23:21:37.792Z,13.21
2019-05-30T23:24:07.696Z,13.24
2019-05-30T23:26:37.520Z,13.25
2019-05-30T23:29:07.421Z,13.30
2019-05-30T23:31:37.400Z,13.28
2019-05-30T23:34:08.471Z,13.36
2019-05-30T23:36:38.278Z,13.27
2019-05-30T23:39:08.206Z,13.39
2019-05-30T23:41:38.091Z,13.26
2019-05-30T23:44:11.702Z,13.35
2019-05-30T23:46:40.635Z,13.33
2019-05-30T23:49:10.614Z,13.46
2019-05-30T23:51:40.582Z,13.42
2019-05-30T23:54:10.568Z,13.24
2019-05-30T23:56:42.400Z,13.21
2019-05-30T23:59:12.122Z,13.21
